sensor_id;sensor_type;location;lat;lon;timestamp;P1;P2;P0
28026;PMS5003;15344;52.342;-1.290;2023-04-25T00:00:15;10;5;
28026;PMS5003;15344;52.342;-1.290;2023-04-25T00:02:40;8;6;
28026;PMS5003;15344;52.342;-1.290;2023-04-25T00:05:06;6;5;
28026;PMS5003;15344;52.342;-1.290;2023-04-25T00:07:31;9;7;
28026;PMS5003;15344;52.342;-1.290;2023-04-25T00:09:57;12;9;
28026;PMS5003;15344;52.342;-1.290;2023-04-25T00:12:22;10;7;
28026;PMS5003;15344;52.342;-1.290;2023-04-25T00:14:48;8;6;
28026;PMS5003;15344;52.342;-1.290;2023-04-25T00:17:13;8;7;
28026;PMS5003;15344;52.342;-1.290;2023-04-25T00:19:38;9;6;
28026;PMS5003;15344;52.342;-1.290;2023-04-25T00:22:04;5;5;
28026;PMS5003;15344;52.342;-1.290;2023-04-25T00:24:30;10;7;
28026;PMS5003;15344;52.342;-1.290;2023-04-25T00:26:55;9;5;
28026;PMS5003;15344;52.342;-1.290;2023-04-25T00:29:21;5;5;
28026;PMS5003;15344;52.342;-1.290;2023-04-25T00:31:46;10;4;
28026;PMS5003;15344;52.342;-1.290;2023-04-25T00:34:11;8;6;
28026;PMS5003;15344;52.342;-1.290;2023-04-25T00:36:37;8;5;
28026;PMS5003;15344;52.342;-1.290;2023-04-25T00:39:03;8;6;
28026;PMS5003;15344;52.342;-1.290;2023-04-25T00:41:29;6;4;
28026;PMS5003;15344;52.342;-1.290;2023-04-25T00:43:54;7;7;
28026;PMS5003;15344;52.342;-1.290;2023-04-25T00:46:19;6;4;
28026;PMS5003;15344;52.342;-1.290;2023-04-25T00:48:45;7;6;
28026;PMS5003;15344;52.342;-1.290;2023-04-25T00:51:11;13;11;
28026;PMS5003;15344;52.342;-1.290;2023-04-25T00:53:35;12;8;
28026;PMS5003;15344;52.342;-1.290;2023-04-25T00:56:01;21;16;
28026;PMS5003;15344;52.342;-1.290;2023-04-25T00:58:27;23;13;
28026;PMS5003;15344;52.342;-1.290;2023-04-25T01:00:52;19;14;
28026;PMS5003;15344;52.342;-1.290;2023-04-25T01:03:18;18;12;
28026;PMS5003;15344;52.342;-1.290;2023-04-25T01:05:43;10;10;
28026;PMS5003;15344;52.342;-1.290;2023-04-25T01:08:09;17;11;
28026;PMS5003;15344;52.342;-1.290;2023-04-25T01:10:34;18;11;
28026;PMS5003;15344;52.342;-1.290;2023-04-25T01:12:59;11;10;
28026;PMS5003;15344;52.342;-1.290;2023-04-25T01:15:24;12;8;
28026;PMS5003;15344;52.342;-1.290;2023-04-25T01:17:50;8;8;
28026;PMS5003;15344;52.342;-1.290;2023-04-25T01:20:15;18;16;
28026;PMS5003;15344;52.342;-1.290;2023-04-25T01:22:40;35;28;
28026;PMS5003;15344;52.342;-1.290;2023-04-25T01:25:05;34;25;
28026;PMS5003;15344;52.342;-1.290;2023-04-25T01:27:31;26;22;
28026;PMS5003;15344;52.342;-1.290;2023-04-25T01:29:56;17;15;
28026;PMS5003;15344;52.342;-1.290;2023-04-25T01:32:21;14;10;
28026;PMS5003;15344;52.342;-1.290;2023-04-25T01:34:46;11;9;
28026;PMS5003;15344;52.342;-1.290;2023-04-25T01:37:12;8;8;
28026;PMS5003;15344;52.342;-1.290;2023-04-25T01:39:37;13;10;
28026;PMS5003;15344;52.342;-1.290;2023-04-25T01:42:03;16;11;
28026;PMS5003;15344;52.342;-1.290;2023-04-25T01:44:28;22;14;
28026;PMS5003;15344;52.342;-1.290;2023-04-25T01:46:54;21;11;
28026;PMS5003;15344;52.342;-1.290;2023-04-25T01:49:19;10;9;
28026;PMS5003;15344;52.342;-1.290;2023-04-25T01:51:44;11;9;
28026;PMS5003;15344;52.342;-1.290;2023-04-25T01:54:10;12;8;
28026;PMS5003;15344;52.342;-1.290;2023-04-25T01:56:36;12;6;
28026;PMS5003;15344;52.342;-1.290;2023-04-25T01:59:01;7;6;
28026;PMS5003;15344;52.342;-1.290;2023-04-25T02:01:26;12;8;
28026;PMS5003;15344;52.342;-1.290;2023-04-25T02:03:52;12;7;
28026;PMS5003;15344;52.342;-1.290;2023-04-25T02:06:18;12;9;
28026;PMS5003;15344;52.342;-1.290;2023-04-25T02:08:43;12;9;
28026;PMS5003;15344;52.342;-1.290;2023-04-25T02:11:09;16;12;
28026;PMS5003;15344;52.342;-1.290;2023-04-25T02:13:35;31;24;
28026;PMS5003;15344;52.342;-1.290;2023-04-25T02:16:00;37;25;
28026;PMS5003;15344;52.342;-1.290;2023-04-25T02:18:25;26;21;
28026;PMS5003;15344;52.342;-1.290;2023-04-25T02:20:51;29;24;
28026;PMS5003;15344;52.342;-1.290;2023-04-25T02:23:16;28;18;
28026;PMS5003;15344;52.342;-1.290;2023-04-25T02:25:41;25;19;
28026;PMS5003;15344;52.342;-1.290;2023-04-25T02:28:07;32;23;
28026;PMS5003;15344;52.342;-1.290;2023-04-25T02:30:33;20;14;
28026;PMS5003;15344;52.342;-1.290;2023-04-25T02:32:59;10;9;
28026;PMS5003;15344;52.342;-1.290;2023-04-25T02:35:24;14;11;
28026;PMS5003;15344;52.342;-1.290;2023-04-25T02:37:49;12;8;
28026;PMS5003;15344;52.342;-1.290;2023-04-25T02:40:15;9;9;
28026;PMS5003;15344;52.342;-1.290;2023-04-25T02:42:40;11;9;
28026;PMS5003;15344;52.342;-1.290;2023-04-25T02:45:06;8;8;
28026;PMS5003;15344;52.342;-1.290;2023-04-25T02:47:32;12;9;
28026;PMS5003;15344;52.342;-1.290;2023-04-25T02:49:57;12;9;
28026;PMS5003;15344;52.342;-1.290;2023-04-25T02:52:23;9;8;
28026;PMS5003;15344;52.342;-1.290;2023-04-25T02:54:48;9;8;
28026;PMS5003;15344;52.342;-1.290;2023-04-25T02:57:14;14;11;
28026;PMS5003;15344;52.342;-1.290;2023-04-25T02:59:39;15;12;
28026;PMS5003;15344;52.342;-1.290;2023-04-25T03:02:05;14;13;
28026;PMS5003;15344;52.342;-1.290;2023-04-25T03:04:30;16;11;
28026;PMS5003;15344;52.342;-1.290;2023-04-25T03:06:56;14;11;
28026;PMS5003;15344;52.342;-1.290;2023-04-25T03:09:21;16;11;
28026;PMS5003;15344;52.342;-1.290;2023-04-25T03:11:46;11;8;
28026;PMS5003;15344;52.342;-1.290;2023-04-25T03:14:12;10;8;
28026;PMS5003;15344;52.342;-1.290;2023-04-25T03:16:38;13;10;
28026;PMS5003;15344;52.342;-1.290;2023-04-25T03:19:03;12;10;
28026;PMS5003;15344;52.342;-1.290;2023-04-25T03:21:29;18;10;
28026;PMS5003;15344;52.342;-1.290;2023-04-25T03:23:55;24;16;
28026;PMS5003;15344;52.342;-1.290;2023-04-25T03:26:20;44;31;
28026;PMS5003;15344;52.342;-1.290;2023-04-25T03:28:45;42;31;
28026;PMS5003;15344;52.342;-1.290;2023-04-25T03:31:11;31;25;
28026;PMS5003;15344;52.342;-1.290;2023-04-25T03:33:36;18;15;
28026;PMS5003;15344;52.342;-1.290;2023-04-25T03:36:02;18;15;
28026;PMS5003;15344;52.342;-1.290;2023-04-25T03:38:27;16;13;
28026;PMS5003;15344;52.342;-1.290;2023-04-25T03:40:53;21;18;
28026;PMS5003;15344;52.342;-1.290;2023-04-25T03:43:18;49;31;
28026;PMS5003;15344;52.342;-1.290;2023-04-25T03:45:44;40;24;
28026;PMS5003;15344;52.342;-1.290;2023-04-25T03:48:09;38;21;
28026;PMS5003;15344;52.342;-1.290;2023-04-25T03:50:34;22;19;
28026;PMS5003;15344;52.342;-1.290;2023-04-25T03:52:59;19;16;
28026;PMS5003;15344;52.342;-1.290;2023-04-25T03:55:25;14;12;
28026;PMS5003;15344;52.342;-1.290;2023-04-25T03:57:50;18;12;
28026;PMS5003;15344;52.342;-1.290;2023-04-25T04:00:16;10;10;
28026;PMS5003;15344;52.342;-1.290;2023-04-25T04:02:41;15;10;
28026;PMS5003;15344;52.342;-1.290;2023-04-25T04:05:07;16;13;
28026;PMS5003;15344;52.342;-1.290;2023-04-25T04:07:32;13;10;
28026;PMS5003;15344;52.342;-1.290;2023-04-25T04:09:58;19;12;
28026;PMS5003;15344;52.342;-1.290;2023-04-25T04:12:23;18;14;
28026;PMS5003;15344;52.342;-1.290;2023-04-25T04:14:49;15;12;
28026;PMS5003;15344;52.342;-1.290;2023-04-25T04:17:15;14;11;
28026;PMS5003;15344;52.342;-1.290;2023-04-25T04:19:40;11;8;
28026;PMS5003;15344;52.342;-1.290;2023-04-25T04:22:06;14;11;
28026;PMS5003;15344;52.342;-1.290;2023-04-25T04:24:31;12;9;
28026;PMS5003;15344;52.342;-1.290;2023-04-25T04:26:56;14;11;
28026;PMS5003;15344;52.342;-1.290;2023-04-25T04:29:21;13;11;
28026;PMS5003;15344;52.342;-1.290;2023-04-25T04:31:49;7;7;
28026;PMS5003;15344;52.342;-1.290;2023-04-25T04:34:13;20;15;
28026;PMS5003;15344;52.342;-1.290;2023-04-25T04:36:38;9;9;
28026;PMS5003;15344;52.342;-1.290;2023-04-25T04:39:05;11;10;
28026;PMS5003;15344;52.342;-1.290;2023-04-25T04:41:29;10;8;
28026;PMS5003;15344;52.342;-1.290;2023-04-25T04:43:54;9;8;
28026;PMS5003;15344;52.342;-1.290;2023-04-25T04:46:20;9;7;
28026;PMS5003;15344;52.342;-1.290;2023-04-25T04:48:45;14;11;
28026;PMS5003;15344;52.342;-1.290;2023-04-25T04:51:11;8;7;
28026;PMS5003;15344;52.342;-1.290;2023-04-25T04:53:36;15;11;
28026;PMS5003;15344;52.342;-1.290;2023-04-25T04:56:02;10;8;
28026;PMS5003;15344;52.342;-1.290;2023-04-25T04:58:28;16;11;
28026;PMS5003;15344;52.342;-1.290;2023-04-25T05:00:53;17;13;
28026;PMS5003;15344;52.342;-1.290;2023-04-25T05:03:19;11;8;
28026;PMS5003;15344;52.342;-1.290;2023-04-25T05:05:44;7;7;
28026;PMS5003;15344;52.342;-1.290;2023-04-25T05:08:10;8;8;
28026;PMS5003;15344;52.342;-1.290;2023-04-25T05:10:36;12;8;
28026;PMS5003;15344;52.342;-1.290;2023-04-25T05:13:01;13;8;
28026;PMS5003;15344;52.342;-1.290;2023-04-25T05:15:27;14;13;
28026;PMS5003;15344;52.342;-1.290;2023-04-25T05:17:52;11;11;
28026;PMS5003;15344;52.342;-1.290;2023-04-25T05:20:18;12;9;
28026;PMS5003;15344;52.342;-1.290;2023-04-25T05:22:44;11;9;
28026;PMS5003;15344;52.342;-1.290;2023-04-25T05:25:09;11;9;
28026;PMS5003;15344;52.342;-1.290;2023-04-25T05:27:35;12;8;
28026;PMS5003;15344;52.342;-1.290;2023-04-25T05:30:00;8;7;
28026;PMS5003;15344;52.342;-1.290;2023-04-25T05:32:25;14;11;
28026;PMS5003;15344;52.342;-1.290;2023-04-25T05:34:51;13;9;
28026;PMS5003;15344;52.342;-1.290;2023-04-25T05:37:16;12;8;
28026;PMS5003;15344;52.342;-1.290;2023-04-25T05:39:42;13;10;
28026;PMS5003;15344;52.342;-1.290;2023-04-25T05:42:08;11;8;
28026;PMS5003;15344;52.342;-1.290;2023-04-25T05:44:33;16;13;
28026;PMS5003;15344;52.342;-1.290;2023-04-25T05:46:59;18;13;
28026;PMS5003;15344;52.342;-1.290;2023-04-25T05:49:25;20;12;
28026;PMS5003;15344;52.342;-1.290;2023-04-25T05:51:50;16;12;
28026;PMS5003;15344;52.342;-1.290;2023-04-25T05:54:16;16;11;
28026;PMS5003;15344;52.342;-1.290;2023-04-25T05:56:41;11;8;
28026;PMS5003;15344;52.342;-1.290;2023-04-25T05:59:07;12;6;
28026;PMS5003;15344;52.342;-1.290;2023-04-25T06:01:32;11;7;
28026;PMS5003;15344;52.342;-1.290;2023-04-25T06:03:58;11;9;
28026;PMS5003;15344;52.342;-1.290;2023-04-25T06:06:23;11;8;
28026;PMS5003;15344;52.342;-1.290;2023-04-25T06:08:49;13;9;
28026;PMS5003;15344;52.342;-1.290;2023-04-25T06:11:15;11;10;
28026;PMS5003;15344;52.342;-1.290;2023-04-25T06:13:40;11;8;
28026;PMS5003;15344;52.342;-1.290;2023-04-25T06:16:06;11;9;
28026;PMS5003;15344;52.342;-1.290;2023-04-25T06:18:31;16;10;
28026;PMS5003;15344;52.342;-1.290;2023-04-25T06:20:56;10;8;
28026;PMS5003;15344;52.342;-1.290;2023-04-25T06:23:22;9;8;
28026;PMS5003;15344;52.342;-1.290;2023-04-25T06:25:48;14;10;
28026;PMS5003;15344;52.342;-1.290;2023-04-25T06:28:13;13;8;
28026;PMS5003;15344;52.342;-1.290;2023-04-25T06:30:38;13;11;
28026;PMS5003;15344;52.342;-1.290;2023-04-25T06:33:04;15;10;
28026;PMS5003;15344;52.342;-1.290;2023-04-25T06:35:29;13;9;
28026;PMS5003;15344;52.342;-1.290;2023-04-25T06:37:55;11;7;
28026;PMS5003;15344;52.342;-1.290;2023-04-25T06:40:20;11;8;
28026;PMS5003;15344;52.342;-1.290;2023-04-25T06:42:45;12;9;
28026;PMS5003;15344;52.342;-1.290;2023-04-25T06:45:11;10;10;
28026;PMS5003;15344;52.342;-1.290;2023-04-25T06:47:36;14;12;
28026;PMS5003;15344;52.342;-1.290;2023-04-25T06:50:02;8;5;
28026;PMS5003;15344;52.342;-1.290;2023-04-25T06:52:27;11;8;
28026;PMS5003;15344;52.342;-1.290;2023-04-25T06:54:53;8;8;
28026;PMS5003;15344;52.342;-1.290;2023-04-25T06:57:18;9;7;
28026;PMS5003;15344;52.342;-1.290;2023-04-25T06:59:44;5;5;
28026;PMS5003;15344;52.342;-1.290;2023-04-25T07:02:09;6;5;
28026;PMS5003;15344;52.342;-1.290;2023-04-25T07:04:35;12;9;
28026;PMS5003;15344;52.342;-1.290;2023-04-25T07:07:01;8;6;
28026;PMS5003;15344;52.342;-1.290;2023-04-25T07:09:26;8;6;
28026;PMS5003;15344;52.342;-1.290;2023-04-25T07:11:52;7;5;
28026;PMS5003;15344;52.342;-1.290;2023-04-25T07:14:17;11;5;
28026;PMS5003;15344;52.342;-1.290;2023-04-25T07:16:43;8;6;
28026;PMS5003;15344;52.342;-1.290;2023-04-25T07:19:08;7;5;
28026;PMS5003;15344;52.342;-1.290;2023-04-25T07:21:34;3;3;
28026;PMS5003;15344;52.342;-1.290;2023-04-25T07:24:00;3;3;
28026;PMS5003;15344;52.342;-1.290;2023-04-25T07:26:25;9;5;
28026;PMS5003;15344;52.342;-1.290;2023-04-25T07:28:50;2;2;
28026;PMS5003;15344;52.342;-1.290;2023-04-25T07:31:16;7;6;
28026;PMS5003;15344;52.342;-1.290;2023-04-25T07:33:41;8;4;
28026;PMS5003;15344;52.342;-1.290;2023-04-25T07:36:07;5;3;
28026;PMS5003;15344;52.342;-1.290;2023-04-25T07:38:32;3;2;
28026;PMS5003;15344;52.342;-1.290;2023-04-25T07:40:57;6;3;
28026;PMS5003;15344;52.342;-1.290;2023-04-25T07:43:22;4;2;
28026;PMS5003;15344;52.342;-1.290;2023-04-25T07:45:47;1;1;
28026;PMS5003;15344;52.342;-1.290;2023-04-25T07:48:16;2;2;
28026;PMS5003;15344;52.342;-1.290;2023-04-25T07:50:38;2;2;
28026;PMS5003;15344;52.342;-1.290;2023-04-25T07:53:03;4;1;
28026;PMS5003;15344;52.342;-1.290;2023-04-25T07:55:28;1;1;
28026;PMS5003;15344;52.342;-1.290;2023-04-25T07:57:53;5;4;
28026;PMS5003;15344;52.342;-1.290;2023-04-25T08:00:19;4;4;
28026;PMS5003;15344;52.342;-1.290;2023-04-25T08:02:44;2;2;
28026;PMS5003;15344;52.342;-1.290;2023-04-25T08:05:09;2;1;
28026;PMS5003;15344;52.342;-1.290;2023-04-25T08:07:35;2;0;
28026;PMS5003;15344;52.342;-1.290;2023-04-25T08:10:00;2;2;
28026;PMS5003;15344;52.342;-1.290;2023-04-25T08:12:25;4;3;
28026;PMS5003;15344;52.342;-1.290;2023-04-25T08:14:50;4;2;
28026;PMS5003;15344;52.342;-1.290;2023-04-25T08:17:15;1;1;
28026;PMS5003;15344;52.342;-1.290;2023-04-25T08:19:40;0;0;
28026;PMS5003;15344;52.342;-1.290;2023-04-25T08:22:05;1;0;
28026;PMS5003;15344;52.342;-1.290;2023-04-25T08:24:30;5;3;
28026;PMS5003;15344;52.342;-1.290;2023-04-25T08:26:55;2;2;
28026;PMS5003;15344;52.342;-1.290;2023-04-25T08:29:21;3;2;
28026;PMS5003;15344;52.342;-1.290;2023-04-25T08:31:46;1;1;
28026;PMS5003;15344;52.342;-1.290;2023-04-25T08:34:12;1;1;
28026;PMS5003;15344;52.342;-1.290;2023-04-25T08:36:38;2;2;
28026;PMS5003;15344;52.342;-1.290;2023-04-25T08:39:04;2;2;
28026;PMS5003;15344;52.342;-1.290;2023-04-25T08:41:30;0;0;
28026;PMS5003;15344;52.342;-1.290;2023-04-25T08:43:56;2;2;
28026;PMS5003;15344;52.342;-1.290;2023-04-25T08:46:22;1;1;
28026;PMS5003;15344;52.342;-1.290;2023-04-25T08:48:48;2;2;
28026;PMS5003;15344;52.342;-1.290;2023-04-25T08:51:15;3;2;
28026;PMS5003;15344;52.342;-1.290;2023-04-25T08:53:39;1;1;
28026;PMS5003;15344;52.342;-1.290;2023-04-25T08:56:05;2;1;
28026;PMS5003;15344;52.342;-1.290;2023-04-25T08:58:31;1;1;
28026;PMS5003;15344;52.342;-1.290;2023-04-25T09:00:56;1;1;
28026;PMS5003;15344;52.342;-1.290;2023-04-25T09:03:22;1;1;
28026;PMS5003;15344;52.342;-1.290;2023-04-25T09:05:48;2;2;
28026;PMS5003;15344;52.342;-1.290;2023-04-25T09:08:14;2;1;
28026;PMS5003;15344;52.342;-1.290;2023-04-25T09:10:40;1;1;
28026;PMS5003;15344;52.342;-1.290;2023-04-25T09:13:06;1;1;
28026;PMS5003;15344;52.342;-1.290;2023-04-25T09:15:32;3;3;
28026;PMS5003;15344;52.342;-1.290;2023-04-25T09:17:58;0;0;
28026;PMS5003;15344;52.342;-1.290;2023-04-25T09:20:23;4;2;
28026;PMS5003;15344;52.342;-1.290;2023-04-25T09:22:49;1;1;
28026;PMS5003;15344;52.342;-1.290;2023-04-25T09:25:15;3;2;
28026;PMS5003;15344;52.342;-1.290;2023-04-25T09:30:07;2;1;
28026;PMS5003;15344;52.342;-1.290;2023-04-25T09:32:32;2;2;
28026;PMS5003;15344;52.342;-1.290;2023-04-25T09:34:58;5;2;
28026;PMS5003;15344;52.342;-1.290;2023-04-25T09:37:25;4;2;
28026;PMS5003;15344;52.342;-1.290;2023-04-25T09:39:50;4;3;
28026;PMS5003;15344;52.342;-1.290;2023-04-25T09:42:15;2;2;
28026;PMS5003;15344;52.342;-1.290;2023-04-25T09:44:43;3;2;
28026;PMS5003;15344;52.342;-1.290;2023-04-25T09:47:07;2;2;
28026;PMS5003;15344;52.342;-1.290;2023-04-25T09:49:33;1;1;
28026;PMS5003;15344;52.342;-1.290;2023-04-25T09:51:59;3;3;
28026;PMS5003;15344;52.342;-1.290;2023-04-25T09:54:24;3;1;
28026;PMS5003;15344;52.342;-1.290;2023-04-25T09:56:51;0;0;
28026;PMS5003;15344;52.342;-1.290;2023-04-25T09:59:16;3;2;
28026;PMS5003;15344;52.342;-1.290;2023-04-25T10:01:41;0;0;
28026;PMS5003;15344;52.342;-1.290;2023-04-25T10:04:07;3;2;
28026;PMS5003;15344;52.342;-1.290;2023-04-25T10:06:33;1;1;
28026;PMS5003;15344;52.342;-1.290;2023-04-25T10:08:59;2;1;
28026;PMS5003;15344;52.342;-1.290;2023-04-25T10:11:25;3;2;
28026;PMS5003;15344;52.342;-1.290;2023-04-25T10:13:51;3;1;
28026;PMS5003;15344;52.342;-1.290;2023-04-25T10:16:16;2;2;
28026;PMS5003;15344;52.342;-1.290;2023-04-25T10:18:41;3;1;
28026;PMS5003;15344;52.342;-1.290;2023-04-25T10:21:06;3;2;
28026;PMS5003;15344;52.342;-1.290;2023-04-25T10:23:31;1;1;
28026;PMS5003;15344;52.342;-1.290;2023-04-25T10:25:56;2;2;
28026;PMS5003;15344;52.342;-1.290;2023-04-25T10:28:21;1;1;
28026;PMS5003;15344;52.342;-1.290;2023-04-25T10:35:36;1;1;
28026;PMS5003;15344;52.342;-1.290;2023-04-25T10:38:03;2;1;
28026;PMS5003;15344;52.342;-1.290;2023-04-25T10:40:26;2;2;
28026;PMS5003;15344;52.342;-1.290;2023-04-25T10:42:51;3;1;
28026;PMS5003;15344;52.342;-1.290;2023-04-25T10:45:16;1;1;
28026;PMS5003;15344;52.342;-1.290;2023-04-25T10:47:43;1;1;
28026;PMS5003;15344;52.342;-1.290;2023-04-25T10:50:07;2;2;
28026;PMS5003;15344;52.342;-1.290;2023-04-25T10:52:32;2;2;
28026;PMS5003;15344;52.342;-1.290;2023-04-25T10:54:57;2;2;
28026;PMS5003;15344;52.342;-1.290;2023-04-25T10:59:47;0;0;
28026;PMS5003;15344;52.342;-1.290;2023-04-25T11:02:12;3;3;
28026;PMS5003;15344;52.342;-1.290;2023-04-25T11:04:37;1;1;
28026;PMS5003;15344;52.342;-1.290;2023-04-25T11:07:05;1;1;
28026;PMS5003;15344;52.342;-1.290;2023-04-25T11:09:27;5;3;
28026;PMS5003;15344;52.342;-1.290;2023-04-25T11:11:53;3;2;
28026;PMS5003;15344;52.342;-1.290;2023-04-25T11:14:19;3;3;
28026;PMS5003;15344;52.342;-1.290;2023-04-25T11:16:43;3;3;
28026;PMS5003;15344;52.342;-1.290;2023-04-25T11:19:08;3;2;
28026;PMS5003;15344;52.342;-1.290;2023-04-25T11:21:33;5;2;
28026;PMS5003;15344;52.342;-1.290;2023-04-25T11:23:58;3;3;
28026;PMS5003;15344;52.342;-1.290;2023-04-25T11:26:24;6;4;
28026;PMS5003;15344;52.342;-1.290;2023-04-25T11:28:49;2;2;
28026;PMS5003;15344;52.342;-1.290;2023-04-25T11:31:14;4;2;
28026;PMS5003;15344;52.342;-1.290;2023-04-25T11:33:39;5;2;
28026;PMS5003;15344;52.342;-1.290;2023-04-25T11:36:04;3;2;
28026;PMS5003;15344;52.342;-1.290;2023-04-25T11:38:30;3;3;
28026;PMS5003;15344;52.342;-1.290;2023-04-25T11:40:55;1;1;
28026;PMS5003;15344;52.342;-1.290;2023-04-25T11:43:20;4;2;
28026;PMS5003;15344;52.342;-1.290;2023-04-25T11:45:46;4;4;
28026;PMS5003;15344;52.342;-1.290;2023-04-25T11:48:11;2;2;
28026;PMS5003;15344;52.342;-1.290;2023-04-25T11:50:36;3;3;
28026;PMS5003;15344;52.342;-1.290;2023-04-25T11:53:01;4;2;
28026;PMS5003;15344;52.342;-1.290;2023-04-25T11:55:26;5;3;
28026;PMS5003;15344;52.342;-1.290;2023-04-25T11:57:52;4;3;
28026;PMS5003;15344;52.342;-1.290;2023-04-25T12:00:18;3;2;
28026;PMS5003;15344;52.342;-1.290;2023-04-25T12:02:43;5;4;
28026;PMS5003;15344;52.342;-1.290;2023-04-25T12:05:08;5;2;
28026;PMS5003;15344;52.342;-1.290;2023-04-25T12:07:33;6;3;
28026;PMS5003;15344;52.342;-1.290;2023-04-25T12:09:58;5;3;
28026;PMS5003;15344;52.342;-1.290;2023-04-25T12:12:27;4;4;
28026;PMS5003;15344;52.342;-1.290;2023-04-25T12:14:48;4;3;
28026;PMS5003;15344;52.342;-1.290;2023-04-25T12:17:14;3;3;
28026;PMS5003;15344;52.342;-1.290;2023-04-25T12:19:39;4;4;
28026;PMS5003;15344;52.342;-1.290;2023-04-25T12:22:10;3;3;
28026;PMS5003;15344;52.342;-1.290;2023-04-25T12:24:32;4;2;
28026;PMS5003;15344;52.342;-1.290;2023-04-25T12:26:58;2;2;
28026;PMS5003;15344;52.342;-1.290;2023-04-25T12:29:21;3;3;
28026;PMS5003;15344;52.342;-1.290;2023-04-25T12:31:45;8;5;
28026;PMS5003;15344;52.342;-1.290;2023-04-25T12:34:11;4;4;
28026;PMS5003;15344;52.342;-1.290;2023-04-25T12:36:36;3;3;
28026;PMS5003;15344;52.342;-1.290;2023-04-25T12:39:02;5;5;
28026;PMS5003;15344;52.342;-1.290;2023-04-25T12:41:27;9;6;
28026;PMS5003;15344;52.342;-1.290;2023-04-25T12:43:52;6;3;
28026;PMS5003;15344;52.342;-1.290;2023-04-25T12:46:17;7;4;
28026;PMS5003;15344;52.342;-1.290;2023-04-25T12:48:43;4;4;
28026;PMS5003;15344;52.342;-1.290;2023-04-25T12:51:08;6;5;
28026;PMS5003;15344;52.342;-1.290;2023-04-25T12:53:34;5;5;
28026;PMS5003;15344;52.342;-1.290;2023-04-25T12:55:59;5;3;
28026;PMS5003;15344;52.342;-1.290;2023-04-25T12:58:24;3;3;
28026;PMS5003;15344;52.342;-1.290;2023-04-25T13:00:50;6;5;
28026;PMS5003;15344;52.342;-1.290;2023-04-25T13:03:15;6;6;
28026;PMS5003;15344;52.342;-1.290;2023-04-25T13:05:40;8;6;
28026;PMS5003;15344;52.342;-1.290;2023-04-25T13:08:05;4;4;
28026;PMS5003;15344;52.342;-1.290;2023-04-25T13:10:31;5;4;
28026;PMS5003;15344;52.342;-1.290;2023-04-25T13:12:56;6;4;
28026;PMS5003;15344;52.342;-1.290;2023-04-25T13:15:21;4;4;
28026;PMS5003;15344;52.342;-1.290;2023-04-25T13:17:46;4;4;
28026;PMS5003;15344;52.342;-1.290;2023-04-25T13:20:11;5;4;
28026;PMS5003;15344;52.342;-1.290;2023-04-25T13:22:37;9;7;
28026;PMS5003;15344;52.342;-1.290;2023-04-25T13:25:02;4;4;
28026;PMS5003;15344;52.342;-1.290;2023-04-25T13:27:27;6;5;
28026;PMS5003;15344;52.342;-1.290;2023-04-25T13:29:52;7;4;
28026;PMS5003;15344;52.342;-1.290;2023-04-25T13:32:17;5;4;
28026;PMS5003;15344;52.342;-1.290;2023-04-25T13:34:42;2;2;
28026;PMS5003;15344;52.342;-1.290;2023-04-25T13:37:08;9;7;
28026;PMS5003;15344;52.342;-1.290;2023-04-25T13:39:33;7;5;
28026;PMS5003;15344;52.342;-1.290;2023-04-25T13:41:58;7;6;
28026;PMS5003;15344;52.342;-1.290;2023-04-25T13:44:23;11;7;
28026;PMS5003;15344;52.342;-1.290;2023-04-25T13:46:49;4;3;
28026;PMS5003;15344;52.342;-1.290;2023-04-25T13:49:14;6;5;
28026;PMS5003;15344;52.342;-1.290;2023-04-25T13:51:39;4;4;
28026;PMS5003;15344;52.342;-1.290;2023-04-25T13:54:04;7;5;
28026;PMS5003;15344;52.342;-1.290;2023-04-25T13:56:30;5;4;
28026;PMS5003;15344;52.342;-1.290;2023-04-25T13:58:55;5;5;
28026;PMS5003;15344;52.342;-1.290;2023-04-25T14:01:20;4;4;
28026;PMS5003;15344;52.342;-1.290;2023-04-25T14:03:45;4;4;
28026;PMS5003;15344;52.342;-1.290;2023-04-25T14:06:10;5;5;
28026;PMS5003;15344;52.342;-1.290;2023-04-25T14:08:35;8;6;
28026;PMS5003;15344;52.342;-1.290;2023-04-25T14:11:01;8;6;
28026;PMS5003;15344;52.342;-1.290;2023-04-25T14:13:26;4;3;
28026;PMS5003;15344;52.342;-1.290;2023-04-25T14:15:51;5;5;
28026;PMS5003;15344;52.342;-1.290;2023-04-25T14:18:17;7;6;
28026;PMS5003;15344;52.342;-1.290;2023-04-25T14:20:42;5;5;
28026;PMS5003;15344;52.342;-1.290;2023-04-25T14:23:07;8;6;
28026;PMS5003;15344;52.342;-1.290;2023-04-25T14:25:32;6;6;
28026;PMS5003;15344;52.342;-1.290;2023-04-25T14:27:57;8;6;
28026;PMS5003;15344;52.342;-1.290;2023-04-25T14:30:22;7;6;
28026;PMS5003;15344;52.342;-1.290;2023-04-25T14:32:48;9;6;
28026;PMS5003;15344;52.342;-1.290;2023-04-25T14:35:13;8;8;
28026;PMS5003;15344;52.342;-1.290;2023-04-25T14:37:38;8;7;
28026;PMS5003;15344;52.342;-1.290;2023-04-25T14:40:04;10;6;
28026;PMS5003;15344;52.342;-1.290;2023-04-25T14:42:28;6;6;
28026;PMS5003;15344;52.342;-1.290;2023-04-25T14:44:54;6;5;
28026;PMS5003;15344;52.342;-1.290;2023-04-25T14:47:19;5;5;
28026;PMS5003;15344;52.342;-1.290;2023-04-25T14:49:44;6;6;
28026;PMS5003;15344;52.342;-1.290;2023-04-25T14:52:10;8;7;
28026;PMS5003;15344;52.342;-1.290;2023-04-25T14:54:35;10;6;
28026;PMS5003;15344;52.342;-1.290;2023-04-25T14:57:01;4;4;
28026;PMS5003;15344;52.342;-1.290;2023-04-25T14:59:26;8;7;
28026;PMS5003;15344;52.342;-1.290;2023-04-25T15:01:52;7;7;
28026;PMS5003;15344;52.342;-1.290;2023-04-25T15:04:17;10;6;
28026;PMS5003;15344;52.342;-1.290;2023-04-25T15:06:42;7;5;
28026;PMS5003;15344;52.342;-1.290;2023-04-25T15:09:07;8;8;
28026;PMS5003;15344;52.342;-1.290;2023-04-25T15:11:33;6;6;
28026;PMS5003;15344;52.342;-1.290;2023-04-25T15:13:58;7;7;
28026;PMS5003;15344;52.342;-1.290;2023-04-25T15:16:23;6;5;
28026;PMS5003;15344;52.342;-1.290;2023-04-25T15:18:48;9;8;
28026;PMS5003;15344;52.342;-1.290;2023-04-25T15:21:13;6;5;
28026;PMS5003;15344;52.342;-1.290;2023-04-25T15:23:39;6;6;
28026;PMS5003;15344;52.342;-1.290;2023-04-25T15:26:05;7;6;
28026;PMS5003;15344;52.342;-1.290;2023-04-25T15:28:29;5;5;
28026;PMS5003;15344;52.342;-1.290;2023-04-25T15:30:55;5;5;
28026;PMS5003;15344;52.342;-1.290;2023-04-25T15:33:21;5;5;
28026;PMS5003;15344;52.342;-1.290;2023-04-25T15:35:46;6;6;
28026;PMS5003;15344;52.342;-1.290;2023-04-25T15:38:11;9;6;
28026;PMS5003;15344;52.342;-1.290;2023-04-25T15:40:36;5;5;
28026;PMS5003;15344;52.342;-1.290;2023-04-25T15:43:02;6;6;
28026;PMS5003;15344;52.342;-1.290;2023-04-25T15:45:27;8;7;
28026;PMS5003;15344;52.342;-1.290;2023-04-25T15:47:53;6;6;
28026;PMS5003;15344;52.342;-1.290;2023-04-25T15:50:18;8;5;
28026;PMS5003;15344;52.342;-1.290;2023-04-25T15:52:43;5;5;
28026;PMS5003;15344;52.342;-1.290;2023-04-25T15:55:09;6;5;
28026;PMS5003;15344;52.342;-1.290;2023-04-25T15:57:35;7;7;
28026;PMS5003;15344;52.342;-1.290;2023-04-25T16:00:00;9;9;
28026;PMS5003;15344;52.342;-1.290;2023-04-25T16:02:25;9;4;
28026;PMS5003;15344;52.342;-1.290;2023-04-25T16:04:50;7;7;
28026;PMS5003;15344;52.342;-1.290;2023-04-25T16:07:15;8;6;
28026;PMS5003;15344;52.342;-1.290;2023-04-25T16:09:40;4;4;
28026;PMS5003;15344;52.342;-1.290;2023-04-25T16:12:07;7;7;
28026;PMS5003;15344;52.342;-1.290;2023-04-25T16:14:31;8;6;
28026;PMS5003;15344;52.342;-1.290;2023-04-25T16:16:56;12;8;
28026;PMS5003;15344;52.342;-1.290;2023-04-25T16:19:21;6;6;